This is the latest recevied weather packets stored in our database for station/object N4CVG. If no packets are shown the sender has not sent any weather packets the latest 10 day(s).
| Time | Temp. | Humidity | Pressure | Rain* | Wind** | Luminosity | Snow |
|---|---|---|---|---|---|---|---|
| 1777698601 | 6.11° C | 80% | 1016.7 hPa | 0 mm | - | - | - |
| 1777695601 | 6.67° C | 78% | 1017 hPa | 0 mm | - | - | - |
| 1777691401 | 7.78° C | 75% | 1017 hPa | 0 mm | - | - | - |
| 1777687822 | 8.89° C | 72% | 1016.6 hPa | 0 mm | - | - | - |
| 1777681800 | 10.56° C | 67% | 1014.7 hPa | 0 mm | - | - | - |
| 1777678801 | 12.78° C | 60% | 1014.1 hPa | 0 mm | - | - | - |
| 1777677002 | 13.89° C | 57% | 1013.8 hPa | 0 mm | - | - | - |
| 1777676401 | 13.89° C | 60% | 1013.5 hPa | 0 mm | - | - | - |
| 1777671602 | 15° C | 54% | 1013.3 hPa | 0 mm | - | - | - |
| 1777669223 | 15.56° C | 54% | 1013.4 hPa | 0 mm | - | - | - |
| 1777661401 | 13.89° C | 63% | 1013.8 hPa | 0 mm | - | - | - |
| 1777657201 | 13.89° C | 66% | 1013.9 hPa | 0 mm | - | - | - |
| 1777653600 | 15° C | 56% | 1013.3 hPa | 0 mm | - | - | - |
| 1777650001 | 16.11° C | 54% | 1013.2 hPa | 0 mm | - | - | - |
| 1777649401 | 16.11° C | 53% | 1013.1 hPa | 0 mm | - | - | - |
| 1777647003 | 14.44° C | 67% | 1013.1 hPa | 0 mm | - | - | - |
| 1777646422 | 13.89° C | 73% | 1013.2 hPa | 0 mm | - | - | - |
| 1777642222 | 9.44° C | 78% | 1013.5 hPa | 0 mm | - | - | - |
| 1777629002 | 5.56° C | 88% | 1013.6 hPa | 0 mm | - | - | - |
| 1777627800 | 6.11° C | 88% | 1013.9 hPa | 0 mm | - | - | - |
| 1777626001 | 5.56° C | 90% | 1014.1 hPa | 0 mm | - | - | - |
| 1777618802 | 6.67° C | 87% | 1014.6 hPa | 0 mm | - | - | - |
| 1777617601 | 7.22° C | 87% | 1014.8 hPa | 0 mm | - | - | - |
| 1777617022 | 7.22° C | 86% | 1014.9 hPa | 0 mm | - | - | - |
| 1777615800 | 7.22° C | 85% | 1015.2 hPa | 0 mm | - | - | - |
* Rain latest hour (hover to see other rain measurements)
** Current wind speed in m/s (hover to see current wind gust speed)